Time;durP1;ratioP1;P1;durP2;ratioP2;P2;SDS_P1;SDS_P2;PMS_P1;PMS_P2;Temp;Humidity;BMP_temperature;BMP_pressure;BME280_temperature;BME280_humidity;BME280_pressure;Samples;Min_cycle;Max_cycle;Signal;HPM_P1;HPM_P2
2023/03/02 00:00:27;;;;;;;25.63;22.20;;;;;;;;;;10016479;28;20296;-72
2023/03/02 00:05:20;;;;;;;26.45;22.17;;;;;;;;;;10010887;28;20039;-74
2023/03/02 00:10:13;;;;;;;24.27;21.48;;;;;;;;;;10024107;28;20058;-74
2023/03/02 00:15:09;;;;;;;25.17;20.27;;;;;;;;;;10018476;28;20393;-74
2023/03/02 00:20:11;;;;;;;22.08;19.73;;;;;;;;;;10028855;28;20054;-74
2023/03/02 00:25:05;;;;;;;21.25;17.05;;;;;;;;;;10028800;28;20056;-74
2023/03/02 00:29:58;;;;;;;22.17;16.30;;;;;;;;;;10029379;28;20068;-74
2023/03/02 00:34:51;;;;;;;20.30;17.95;;;;;;;;;;10029190;28;20127;-74
2023/03/02 00:39:45;;;;;;;19.10;17.30;;;;;;;;;;10028813;28;20453;-74
2023/03/02 00:44:38;;;;;;;16.88;15.13;;;;;;;;;;10022456;28;20522;-76
2023/03/02 00:49:32;;;;;;;16.27;14.68;;;;;;;;;;10028735;28;20442;-75
2023/03/02 00:54:25;;;;;;;13.90;11.70;;;;;;;;;;10025169;28;20144;-74
2023/03/02 00:59:26;;;;;;;13.43;12.13;;;;;;;;;;10028420;28;20154;-74
2023/03/02 01:04:40;;;;;;;;;;;;;;;;;;10027012;28;20057;-74
2023/03/02 01:09:34;;;;;;;13.43;11.65;;;;;;;;;;10028306;28;19925;-74
2023/03/02 01:14:27;;;;;;;12.52;11.23;;;;;;;;;;10027577;28;20044;-73
2023/03/02 01:19:20;;;;;;;12.65;11.35;;;;;;;;;;10027821;28;20427;-74
2023/03/02 01:24:12;;;;;;;11.07;10.07;;;;;;;;;;10027978;28;20089;-73
2023/03/02 01:29:06;;;;;;;13.15;11.80;;;;;;;;;;10027512;28;20045;-73
2023/03/02 01:33:59;;;;;;;13.50;12.15;;;;;;;;;;10026291;28;20477;-72
2023/03/02 01:38:53;;;;;;;13.50;11.57;;;;;;;;;;10025788;28;20100;-72
2023/03/02 01:43:46;;;;;;;12.48;11.27;;;;;;;;;;10026316;28;20073;-72
2023/03/02 01:48:51;;;;;;;12.77;11.52;;;;;;;;;;10027430;28;20049;-71
2023/03/02 01:54:16;;;;;;;14.20;12.80;;;;;;;;;;10023153;28;20085;-72
2023/03/02 01:59:14;;;;;;;14.52;13.02;;;;;;;;;;10027429;28;20074;-72
2023/03/02 02:04:07;;;;;;;14.43;12.90;;;;;;;;;;10008697;28;20046;-72
2023/03/02 02:09:00;;;;;;;15.85;13.20;;;;;;;;;;10024998;28;20490;-72
2023/03/02 02:13:55;;;;;;;15.57;13.23;;;;;;;;;;10008859;28;20070;-71
2023/03/02 02:18:49;;;;;;;15.43;12.77;;;;;;;;;;10025363;28;20056;-71
2023/03/02 02:23:56;;;;;;;14.95;13.45;;;;;;;;;;10026257;28;20041;-69
2023/03/02 02:29:11;;;;;;;16.33;14.63;;;;;;;;;;10026144;28;20099;-70
2023/03/02 02:34:21;;;;;;;14.43;12.25;;;;;;;;;;10006694;28;20077;-70
2023/03/02 02:39:20;;;;;;;14.13;12.73;;;;;;;;;;9986483;28;20487;-70
2023/03/02 02:44:17;;;;;;;14.73;13.23;;;;;;;;;;10025511;28;20088;-69
2023/03/02 02:49:30;;;;;;;17.20;15.30;;;;;;;;;;10022731;28;20081;-70
2023/03/02 02:54:23;;;;;;;16.15;14.45;;;;;;;;;;10024588;28;20053;-70
2023/03/02 02:59:20;;;;;;;15.65;14.15;;;;;;;;;;10024279;28;20054;-69
2023/03/02 03:04:19;;;;;;;14.90;13.43;;;;;;;;;;10024356;28;20116;-69
2023/03/02 03:09:13;;;;;;;13.00;11.60;;;;;;;;;;9992404;28;20042;-70
2023/03/02 03:14:16;;;;;;;13.82;11.73;;;;;;;;;;10023703;28;20108;-69
2023/03/02 03:19:29;;;;;;;12.02;10.70;;;;;;;;;;10023749;28;20045;-69
2023/03/02 03:24:24;;;;;;;14.38;12.88;;;;;;;;;;10025204;28;20038;-69
2023/03/02 03:29:18;;;;;;;12.88;11.57;;;;;;;;;;10029197;28;20049;-69
2023/03/02 03:34:12;;;;;;;13.75;11.68;;;;;;;;;;10031694;28;20126;-71
2023/03/02 03:39:06;;;;;;;13.38;12.10;;;;;;;;;;10027316;28;20057;-71
2023/03/02 03:44:03;;;;;;;13.38;11.90;;;;;;;;;;10029864;28;20046;-71
2023/03/02 03:48:58;;;;;;;12.93;11.60;;;;;;;;;;10029941;28;20460;-72
2023/03/02 03:54:00;;;;;;;12.57;11.27;;;;;;;;;;10029068;28;20081;-72
2023/03/02 03:59:06;;;;;;;13.75;11.43;;;;;;;;;;10033094;28;20079;-72
2023/03/02 04:04:09;;;;;;;13.73;12.30;;;;;;;;;;10014969;28;20104;-72
2023/03/02 04:09:04;;;;;;;15.18;13.07;;;;;;;;;;10022539;28;20050;-72
2023/03/02 04:13:59;;;;;;;14.45;13.05;;;;;;;;;;10029197;28;20046;-71
2023/03/02 04:18:52;;;;;;;11.98;10.77;;;;;;;;;;10029610;28;20046;-69
2023/03/02 04:23:45;;;;;;;11.75;9.93;;;;;;;;;;10029078;28;20145;-69
2023/03/02 04:28:38;;;;;;;11.00;9.68;;;;;;;;;;10028723;28;20495;-70
2023/03/02 04:33:31;;;;;;;11.90;10.65;;;;;;;;;;10029416;28;20693;-70
2023/03/02 04:38:28;;;;;;;11.95;10.65;;;;;;;;;;10026988;28;20169;-72
2023/03/02 04:43:24;;;;;;;11.55;10.35;;;;;;;;;;10028287;28;20056;-72
2023/03/02 04:48:21;;;;;;;12.23;11.03;;;;;;;;;;10028834;28;20487;-69
2023/03/02 04:53:14;;;;;;;11.05;9.95;;;;;;;;;;10028667;28;20344;-69
2023/03/02 04:58:08;;;;;;;11.05;9.88;;;;;;;;;;10029951;28;20053;-69
2023/03/02 05:03:03;;;;;;;11.05;9.75;;;;;;;;;;10028357;28;20108;-69
2023/03/02 05:07:57;;;;;;;12.27;10.93;;;;;;;;;;10028532;28;20054;-69
2023/03/02 05:12:53;;;;;;;11.38;10.00;;;;;;;;;;10028190;28;20061;-69
2023/03/02 05:17:47;;;;;;;11.10;10.00;;;;;;;;;;10027746;28;20058;-69
2023/03/02 05:22:39;;;;;;;10.60;9.50;;;;;;;;;;10026913;28;20074;-69
2023/03/02 05:27:34;;;;;;;10.15;9.15;;;;;;;;;;10027452;28;20057;-69
2023/03/02 05:32:27;;;;;;;9.38;8.40;;;;;;;;;;10024651;28;20100;-69
2023/03/02 05:37:20;;;;;;;10.05;9.05;;;;;;;;;;10027555;28;20064;-72
2023/03/02 05:42:13;;;;;;;15.68;8.43;;;;;;;;;;10026880;28;20394;-70
2023/03/02 05:47:07;;;;;;;9.98;9.07;;;;;;;;;;10027074;28;20053;-69
2023/03/02 05:52:01;;;;;;;10.32;8.73;;;;;;;;;;10018759;28;20065;-69
2023/03/02 05:56:55;;;;;;;10.73;9.63;;;;;;;;;;10000381;28;20508;-70
2023/03/02 06:01:49;;;;;;;11.93;10.82;;;;;;;;;;10015896;28;20505;-68
2023/03/02 06:06:42;;;;;;;10.65;9.65;;;;;;;;;;10025789;28;20392;-67
2023/03/02 06:11:35;;;;;;;10.65;8.98;;;;;;;;;;10028427;28;20053;-68
2023/03/02 06:16:29;;;;;;;10.98;9.85;;;;;;;;;;10014879;28;20053;-70
2023/03/02 06:21:24;;;;;;;11.90;10.57;;;;;;;;;;10008424;28;20057;-69
2023/03/02 06:26:17;;;;;;;12.23;9.93;;;;;;;;;;10010890;28;20119;-70
2023/03/02 06:31:11;;;;;;;11.75;10.52;;;;;;;;;;10007120;28;20146;-70
2023/03/02 06:36:04;;;;;;;13.60;12.20;;;;;;;;;;9991604;28;20038;-70
2023/03/02 06:40:59;;;;;;;15.05;12.52;;;;;;;;;;9996178;28;20487;-69
2023/03/02 06:45:52;;;;;;;28.70;18.38;;;;;;;;;;10007445;28;20049;-71
2023/03/02 06:50:45;;;;;;;14.98;11.63;;;;;;;;;;10007312;28;20057;-70
2023/03/02 06:55:39;;;;;;;13.52;12.00;;;;;;;;;;9999712;28;20078;-70
2023/03/02 07:00:31;;;;;;;19.58;12.70;;;;;;;;;;10007123;28;20499;-69
2023/03/02 07:05:26;;;;;;;16.50;12.00;;;;;;;;;;10018376;28;20048;-69
2023/03/02 07:10:19;;;;;;;12.55;10.77;;;;;;;;;;10012716;28;20053;-70
2023/03/02 07:15:13;;;;;;;13.30;11.82;;;;;;;;;;10015384;28;20598;-70
2023/03/02 07:20:08;;;;;;;16.88;13.32;;;;;;;;;;10021664;28;20056;-71
2023/03/02 07:25:00;;;;;;;15.75;12.73;;;;;;;;;;10012493;28;20088;-70
2023/03/02 07:29:54;;;;;;;13.90;11.73;;;;;;;;;;10011416;28;20061;-70
2023/03/02 07:34:48;;;;;;;14.68;12.18;;;;;;;;;;10008943;28;20042;-70
2023/03/02 07:39:40;;;;;;;20.52;14.88;;;;;;;;;;10009415;28;20052;-70
2023/03/02 07:44:34;;;;;;;30.42;19.52;;;;;;;;;;10016250;28;20454;-70
2023/03/02 07:49:27;;;;;;;39.35;25.67;;;;;;;;;;10010741;28;20053;-69
2023/03/02 07:54:19;;;;;;;16.75;14.35;;;;;;;;;;10010592;28;20053;-70
2023/03/02 07:59:13;;;;;;;25.58;18.77;;;;;;;;;;10014914;28;20081;-71
2023/03/02 08:04:05;;;;;;;15.88;14.00;;;;;;;;;;10008876;28;20558;-71
2023/03/02 08:09:02;;;;;;;15.85;13.00;;;;;;;;;;10020806;28;20503;-70
2023/03/02 08:13:58;;;;;;;15.55;12.85;;;;;;;;;;10016972;28;20034;-72
2023/03/02 08:18:51;;;;;;;19.35;14.50;;;;;;;;;;10014487;28;20643;-72
2023/03/02 08:23:44;;;;;;;16.65;13.50;;;;;;;;;;10017259;28;20458;-73
2023/03/02 08:28:38;;;;;;;20.50;15.82;;;;;;;;;;10009473;28;20097;-73
2023/03/02 08:33:31;;;;;;;19.05;15.70;;;;;;;;;;10027391;28;20129;-73
2023/03/02 08:38:25;;;;;;;19.08;16.60;;;;;;;;;;10029493;28;20454;-73
2023/03/02 08:43:18;;;;;;;18.35;15.85;;;;;;;;;;10029052;28;20061;-72
2023/03/02 08:48:11;;;;;;;26.92;21.25;;;;;;;;;;10013111;28;20487;-71
2023/03/02 08:53:04;;;;;;;24.67;20.08;;;;;;;;;;10016095;28;21821;-71
2023/03/02 08:57:57;;;;;;;28.98;20.38;;;;;;;;;;10000270;28;20509;-68
2023/03/02 09:02:51;;;;;;;23.80;19.95;;;;;;;;;;10011913;28;20533;-70
2023/03/02 09:07:44;;;;;;;28.45;20.92;;;;;;;;;;10006717;28;20145;-70
2023/03/02 09:12:37;;;;;;;22.65;17.77;;;;;;;;;;10014534;28;20410;-70
2023/03/02 09:17:29;;;;;;;22.33;19.42;;;;;;;;;;10015153;28;20088;-70
2023/03/02 09:22:23;;;;;;;24.13;19.42;;;;;;;;;;10006607;28;20042;-69
2023/03/02 09:27:16;;;;;;;28.02;20.15;;;;;;;;;;10013418;28;20046;-69
2023/03/02 09:32:12;;;;;;;33.47;20.80;;;;;;;;;;10007232;28;20069;-70
2023/03/02 09:37:06;;;;;;;26.88;21.58;;;;;;;;;;10009432;28;20052;-70
2023/03/02 09:42:05;;;;;;;29.98;21.67;;;;;;;;;;10007143;28;20089;-67
2023/03/02 09:47:20;;;;;;;27.57;20.93;;;;;;;;;;10010415;28;20049;-68
2023/03/02 09:52:39;;;;;;;23.48;20.88;;;;;;;;;;10001799;28;20324;-69
2023/03/02 09:57:34;;;;;;;25.35;20.67;;;;;;;;;;10005507;28;20077;-69
2023/03/02 10:02:29;;;;;;;30.15;19.13;;;;;;;;;;10006645;28;20034;-68
2023/03/02 10:07:26;;;;;;;25.48;21.60;;;;;;;;;;9996792;28;20052;-69
2023/03/02 10:12:37;;;;;;;27.08;20.23;;;;;;;;;;10005019;28;20060;-69
2023/03/02 10:17:32;;;;;;;25.13;22.25;;;;;;;;;;10004413;28;20081;-69
2023/03/02 10:22:38;;;;;;;23.60;20.38;;;;;;;;;;10011765;28;20092;-69
2023/03/02 10:27:37;;;;;;;25.58;20.48;;;;;;;;;;10015191;28;20054;-70
2023/03/02 10:32:35;;;;;;;26.40;21.58;;;;;;;;;;10013926;28;20049;-68
2023/03/02 10:37:31;;;;;;;27.08;21.00;;;;;;;;;;10018351;28;20073;-68
2023/03/02 10:42:30;;;;;;;23.83;20.20;;;;;;;;;;10017593;28;20088;-70
2023/03/02 10:47:24;;;;;;;;;;;;;;;;;;10022114;28;20057;-68
2023/03/02 10:52:22;;;;;;;24.45;19.75;;;;;;;;;;10010082;28;19965;-73
2023/03/02 10:57:23;;;;;;;26.03;20.60;;;;;;;;;;10019342;28;20053;-73
2023/03/02 11:02:22;;;;;;;22.45;18.90;;;;;;;;;;10019720;28;20289;-73
2023/03/02 11:07:18;;;;;;;21.73;19.23;;;;;;;;;;10004689;28;20085;-69
2023/03/02 11:12:15;;;;;;;25.13;21.38;;;;;;;;;;10019551;28;20045;-70
2023/03/02 11:17:38;;;;;;;24.45;18.77;;;;;;;;;;10024136;28;20160;-70
2023/03/02 11:22:37;;;;;;;22.70;20.00;;;;;;;;;;10015394;28;20136;-69
2023/03/02 11:27:33;;;;;;;22.52;18.30;;;;;;;;;;10030505;28;20081;-70
2023/03/02 11:32:44;;;;;;;24.05;18.40;;;;;;;;;;10031459;28;20096;-70
2023/03/02 11:37:49;;;;;;;23.98;19.83;;;;;;;;;;10031958;28;20054;-70
2023/03/02 11:42:44;;;;;;;21.48;17.75;;;;;;;;;;10024951;28;20049;-70
2023/03/02 11:47:37;;;;;;;24.98;19.55;;;;;;;;;;10017818;28;20495;-69
2023/03/02 11:52:33;;;;;;;23.50;18.83;;;;;;;;;;10027954;28;20049;-69
2023/03/02 11:57:32;;;;;;;21.48;18.55;;;;;;;;;;10027128;28;20053;-69
2023/03/02 12:02:27;;;;;;;22.00;18.73;;;;;;;;;;10026250;28;20121;-69
2023/03/02 12:07:25;;;;;;;22.55;18.98;;;;;;;;;;10030139;28;20300;-69
2023/03/02 12:12:24;;;;;;;20.35;17.88;;;;;;;;;;10030437;28;20054;-68
2023/03/02 12:17:19;;;;;;;22.73;19.60;;;;;;;;;;10028502;28;20057;-68
2023/03/02 12:22:13;;;;;;;26.13;20.13;;;;;;;;;;10028993;28;20056;-68
2023/03/02 12:27:24;;;;;;;25.95;20.67;;;;;;;;;;10029029;28;20046;-68
2023/03/02 12:32:17;;;;;;;19.58;17.45;;;;;;;;;;10028112;28;20058;-68
2023/03/02 12:37:17;;;;;;;20.88;17.63;;;;;;;;;;10023935;28;20042;-68
2023/03/02 12:42:32;;;;;;;20.70;17.23;;;;;;;;;;10022719;28;20053;-67
2023/03/02 12:47:28;;;;;;;19.60;17.50;;;;;;;;;;10020479;28;20100;-67
2023/03/02 12:52:33;;;;;;;23.23;16.92;;;;;;;;;;10005326;28;20523;-69
2023/03/02 12:57:27;;;;;;;18.30;16.23;;;;;;;;;;9998444;28;20066;-70
2023/03/02 13:02:23;;;;;;;20.13;15.88;;;;;;;;;;10012621;28;20050;-70
2023/03/02 13:07:22;;;;;;;21.20;16.67;;;;;;;;;;10008873;28;20101;-69
2023/03/02 13:12:16;;;;;;;18.85;16.27;;;;;;;;;;10026656;28;20056;-69
2023/03/02 13:17:30;;;;;;;19.70;16.58;;;;;;;;;;10028614;28;20046;-69
2023/03/02 13:22:24;;;;;;;20.23;16.33;;;;;;;;;;10026554;28;20050;-69
2023/03/02 13:27:20;;;;;;;19.55;16.45;;;;;;;;;;10027671;28;20053;-69
2023/03/02 13:32:24;;;;;;;18.63;15.02;;;;;;;;;;10034012;28;20074;-69
2023/03/02 13:37:29;;;;;;;17.05;15.32;;;;;;;;;;10017255;28;20466;-68
2023/03/02 13:42:27;;;;;;;19.75;15.10;;;;;;;;;;10026271;28;20045;-68
2023/03/02 13:47:23;;;;;;;19.30;15.43;;;;;;;;;;10023446;28;20554;-67
2023/03/02 13:52:28;;;;;;;18.45;15.75;;;;;;;;;;10017883;28;20077;-68
2023/03/02 13:57:27;;;;;;;17.60;14.68;;;;;;;;;;10006435;28;20049;-65
2023/03/02 14:02:27;;;;;;;24.02;15.75;;;;;;;;;;10020537;28;20108;-68
2023/03/02 14:07:19;;;;;;;18.92;15.85;;;;;;;;;;10016012;28;20532;-68
2023/03/02 14:12:22;;;;;;;23.45;17.60;;;;;;;;;;10012311;28;20096;-69
2023/03/02 14:17:20;;;;;;;20.63;17.40;;;;;;;;;;10004005;28;20042;-68
2023/03/02 14:22:14;;;;;;;18.38;15.73;;;;;;;;;;10021341;28;20053;-68
2023/03/02 14:27:08;;;;;;;20.20;15.80;;;;;;;;;;10024927;28;20045;-68
2023/03/02 14:32:03;;;;;;;21.70;17.48;;;;;;;;;;10024418;28;20137;-68
2023/03/02 14:36:58;;;;;;;23.23;19.40;;;;;;;;;;10025583;28;20065;-67
2023/03/02 14:41:51;;;;;;;20.70;17.80;;;;;;;;;;10021524;28;20574;-68
2023/03/02 14:46:46;;;;;;;20.83;16.63;;;;;;;;;;10016396;28;20042;-68
2023/03/02 14:51:40;;;;;;;20.98;18.63;;;;;;;;;;10021782;28;20088;-68
2023/03/02 14:56:33;;;;;;;21.38;18.23;;;;;;;;;;10023806;28;20128;-68
2023/03/02 15:01:28;;;;;;;23.90;18.88;;;;;;;;;;10022174;28;20057;-68
2023/03/02 15:06:29;;;;;;;23.38;18.73;;;;;;;;;;10024303;28;20088;-68
2023/03/02 15:11:23;;;;;;;21.38;16.92;;;;;;;;;;10025095;28;20141;-67
2023/03/02 15:16:17;;;;;;;22.77;18.73;;;;;;;;;;10024619;28;20052;-68
2023/03/02 15:21:18;;;;;;;22.88;17.80;;;;;;;;;;10024128;28;20660;-68
2023/03/02 15:26:12;;;;;;;26.00;19.50;;;;;;;;;;10031069;28;20053;-68
2023/03/02 15:31:13;;;;;;;31.42;20.58;;;;;;;;;;10032392;28;20132;-69
2023/03/02 15:36:06;;;;;;;26.98;18.15;;;;;;;;;;10031437;28;20129;-68
2023/03/02 15:41:09;;;;;;;22.73;17.95;;;;;;;;;;10030615;28;20058;-68
2023/03/02 15:46:04;;;;;;;26.30;20.20;;;;;;;;;;10030680;28;20305;-68
2023/03/02 15:51:03;;;;;;;27.85;20.67;;;;;;;;;;10029357;28;20525;-69
2023/03/02 15:55:56;;;;;;;28.73;20.08;;;;;;;;;;10026733;28;20069;-69
2023/03/02 16:00:52;;;;;;;31.25;19.73;;;;;;;;;;10030247;28;20494;-69
2023/03/02 16:05:45;;;;;;;26.13;20.42;;;;;;;;;;10026989;28;20050;-68
2023/03/02 16:10:41;;;;;;;29.10;21.42;;;;;;;;;;10008209;28;20038;-68
2023/03/02 16:15:40;;;;;;;26.27;20.08;;;;;;;;;;10028833;28;20064;-68
2023/03/02 16:20:53;;;;;;;23.35;19.10;;;;;;;;;;10030422;28;20052;-69
2023/03/02 16:25:48;;;;;;;23.35;19.20;;;;;;;;;;10028582;28;20058;-67
2023/03/02 16:30:43;;;;;;;23.70;21.17;;;;;;;;;;10011431;28;20046;-69
2023/03/02 16:35:37;;;;;;;23.27;19.67;;;;;;;;;;10025593;28;20050;-69
2023/03/02 16:40:31;;;;;;;23.45;18.88;;;;;;;;;;10016215;28;20355;-69
2023/03/02 16:45:25;;;;;;;22.35;19.10;;;;;;;;;;10023914;28;20046;-70
2023/03/02 16:50:19;;;;;;;23.25;19.77;;;;;;;;;;10014866;28;20057;-69
2023/03/02 16:55:16;;;;;;;22.88;19.23;;;;;;;;;;10024365;28;20085;-67
2023/03/02 17:00:13;;;;;;;23.88;19.92;;;;;;;;;;10014862;28;20065;-68
2023/03/02 17:05:07;;;;;;;22.38;19.52;;;;;;;;;;10008272;28;20097;-67
2023/03/02 17:10:00;;;;;;;33.67;21.05;;;;;;;;;;10010978;28;20504;-68
2023/03/02 17:14:58;;;;;;;22.02;18.48;;;;;;;;;;10008110;28;20475;-68
2023/03/02 17:19:56;;;;;;;21.53;18.87;;;;;;;;;;10014341;28;20042;-69
2023/03/02 17:24:53;;;;;;;23.45;17.90;;;;;;;;;;10018719;28;20886;-68
2023/03/02 17:29:47;;;;;;;25.55;20.67;;;;;;;;;;10021960;28;20133;-72
2023/03/02 17:34:42;;;;;;;23.48;20.20;;;;;;;;;;10027334;28;20057;-70
2023/03/02 17:39:35;;;;;;;27.45;22.15;;;;;;;;;;10016768;28;20046;-69
2023/03/02 17:44:28;;;;;;;28.60;21.38;;;;;;;;;;10019841;28;20046;-67
2023/03/02 17:49:21;;;;;;;30.45;22.08;;;;;;;;;;10019236;28;20046;-67
2023/03/02 17:54:15;;;;;;;27.65;22.42;;;;;;;;;;10011906;28;20058;-68
2023/03/02 17:59:09;;;;;;;25.10;21.35;;;;;;;;;;10026028;28;20054;-67
2023/03/02 18:04:04;;;;;;;35.08;25.95;;;;;;;;;;10026572;28;20116;-67
2023/03/02 18:09:00;;;;;;;34.05;26.90;;;;;;;;;;10014162;28;20050;-67
2023/03/02 18:13:56;;;;;;;38.03;24.52;;;;;;;;;;10020207;28;20049;-67
2023/03/02 18:18:49;;;;;;;30.48;23.23;;;;;;;;;;10024957;28;20037;-67
2023/03/02 18:23:47;;;;;;;30.45;25.05;;;;;;;;;;10023269;28;20054;-67
2023/03/02 18:28:43;;;;;;;35.95;27.52;;;;;;;;;;10026287;28;20050;-67
2023/03/02 18:33:36;;;;;;;35.38;26.55;;;;;;;;;;10019358;28;20034;-66
2023/03/02 18:38:51;;;;;;;33.90;28.33;;;;;;;;;;10018391;28;20108;-66
2023/03/02 18:43:44;;;;;;;39.78;29.52;;;;;;;;;;10006906;28;20137;-66
2023/03/02 18:48:38;;;;;;;32.15;24.95;;;;;;;;;;10025238;28;20056;-66
2023/03/02 18:53:32;;;;;;;39.53;27.60;;;;;;;;;;10022695;28;20153;-66
2023/03/02 18:58:26;;;;;;;32.05;24.30;;;;;;;;;;10020148;28;20046;-66
2023/03/02 19:03:19;;;;;;;33.53;27.40;;;;;;;;;;10031213;28;20050;-66
2023/03/02 19:08:12;;;;;;;31.40;25.23;;;;;;;;;;10032775;28;20056;-66
2023/03/02 19:13:08;;;;;;;30.42;24.88;;;;;;;;;;10028958;28;20052;-66
2023/03/02 19:18:00;;;;;;;33.10;26.02;;;;;;;;;;10026669;28;20128;-66
2023/03/02 19:22:54;;;;;;;32.88;25.40;;;;;;;;;;10032056;28;20423;-66
2023/03/02 19:27:48;;;;;;;72.40;51.00;;;;;;;;;;10018380;28;20089;-67
2023/03/02 19:32:41;;;;;;;38.47;27.73;;;;;;;;;;10029461;28;20436;-68
2023/03/02 19:37:34;;;;;;;40.83;31.27;;;;;;;;;;10015613;28;20100;-67
2023/03/02 19:42:29;;;;;;;36.45;28.67;;;;;;;;;;10014173;28;20041;-68
2023/03/02 19:47:22;;;;;;;41.85;30.73;;;;;;;;;;10020733;28;20046;-68
2023/03/02 19:52:15;;;;;;;39.42;31.20;;;;;;;;;;10015603;28;20080;-68
2023/03/02 19:57:09;;;;;;;36.58;29.67;;;;;;;;;;10018479;28;20100;-66
2023/03/02 20:02:02;;;;;;;37.05;30.08;;;;;;;;;;10005215;28;20054;-67
2023/03/02 20:06:55;;;;;;;39.53;32.28;;;;;;;;;;10013201;28;20411;-67
2023/03/02 20:11:48;;;;;;;40.20;32.80;;;;;;;;;;10020019;28;20042;-67
2023/03/02 20:16:42;;;;;;;34.28;27.63;;;;;;;;;;10016500;28;20487;-68
2023/03/02 20:21:37;;;;;;;41.40;30.00;;;;;;;;;;10010701;28;20077;-69
2023/03/02 20:26:30;;;;;;;46.63;35.40;;;;;;;;;;10009152;28;20092;-69
2023/03/02 20:31:24;;;;;;;43.95;34.85;;;;;;;;;;10012874;28;20411;-68
2023/03/02 20:36:24;;;;;;;40.85;30.95;;;;;;;;;;10020815;28;20048;-69
2023/03/02 20:41:17;;;;;;;41.05;31.45;;;;;;;;;;10023519;28;20077;-71
2023/03/02 20:46:17;;;;;;;45.63;37.83;;;;;;;;;;10015441;28;20142;-70
2023/03/02 20:51:11;;;;;;;40.13;31.80;;;;;;;;;;10015241;28;20104;-72
2023/03/02 20:56:05;;;;;;;41.55;32.25;;;;;;;;;;10009195;28;20145;-70
2023/03/02 21:00:59;;;;;;;42.97;34.00;;;;;;;;;;10019164;28;20050;-68
2023/03/02 21:05:53;;;;;;;37.17;30.23;;;;;;;;;;10003656;28;20050;-70
2023/03/02 21:10:46;;;;;;;36.80;28.55;;;;;;;;;;10016355;28;20065;-71
2023/03/02 21:15:39;;;;;;;31.30;26.70;;;;;;;;;;10012947;28;20092;-71
2023/03/02 21:20:34;;;;;;;33.88;28.33;;;;;;;;;;10014512;28;20104;-70
2023/03/02 21:25:28;;;;;;;38.28;27.55;;;;;;;;;;10015346;28;20124;-70
2023/03/02 21:30:26;;;;;;;30.52;24.30;;;;;;;;;;10017807;28;20495;-71
2023/03/02 21:35:21;;;;;;;33.78;28.08;;;;;;;;;;10012840;28;20396;-69
2023/03/02 21:40:18;;;;;;;37.83;29.35;;;;;;;;;;10005522;28;20058;-68
2023/03/02 21:45:12;;;;;;;35.63;25.33;;;;;;;;;;10009058;28;20072;-70
2023/03/02 21:50:06;;;;;;;34.40;24.48;;;;;;;;;;10005538;28;20042;-69
2023/03/02 21:54:59;;;;;;;39.03;28.10;;;;;;;;;;10006980;28;20495;-71
2023/03/02 21:59:53;;;;;;;35.47;26.75;;;;;;;;;;10003339;28;20054;-71
2023/03/02 22:04:47;;;;;;;38.42;29.17;;;;;;;;;;10005098;28;20045;-71
2023/03/02 22:09:41;;;;;;;39.92;27.83;;;;;;;;;;10010891;28;20064;-70
2023/03/02 22:14:34;;;;;;;38.10;30.00;;;;;;;;;;10016495;28;20093;-70
2023/03/02 22:19:31;;;;;;;37.92;29.08;;;;;;;;;;10014305;28;20049;-68
2023/03/02 22:24:29;;;;;;;39.85;29.17;;;;;;;;;;10017153;28;20424;-71
2023/03/02 22:29:36;;;;;;;41.50;28.43;;;;;;;;;;10012545;28;20053;-69
2023/03/02 22:34:30;;;;;;;32.83;24.77;;;;;;;;;;10010526;28;20173;-71
2023/03/02 22:39:31;;;;;;;38.20;25.95;;;;;;;;;;10008141;28;20467;-70
2023/03/02 22:44:24;;;;;;;44.03;30.77;;;;;;;;;;10018892;28;20050;-68
2023/03/02 22:49:16;;;;;;;31.23;25.50;;;;;;;;;;10015366;28;20057;-67
2023/03/02 22:54:25;;;;;;;34.90;27.15;;;;;;;;;;10015141;28;20061;-70
2023/03/02 22:59:26;;;;;;;32.38;24.83;;;;;;;;;;10009147;28;20499;-68
2023/03/02 23:04:21;;;;;;;31.88;24.02;;;;;;;;;;10013353;28;20049;-68
2023/03/02 23:09:19;;;;;;;34.65;27.77;;;;;;;;;;10019523;28;20121;-68
2023/03/02 23:14:25;;;;;;;35.83;26.42;;;;;;;;;;10021136;28;20050;-68
2023/03/02 23:19:19;;;;;;;35.72;26.73;;;;;;;;;;10014784;28;20074;-68
2023/03/02 23:24:13;;;;;;;38.88;25.80;;;;;;;;;;10024821;28;20054;-69
2023/03/02 23:29:07;;;;;;;33.15;26.42;;;;;;;;;;10024827;28;20542;-68
2023/03/02 23:34:00;;;;;;;38.42;28.75;;;;;;;;;;10000431;28;20109;-68
2023/03/02 23:38:54;;;;;;;42.95;27.42;;;;;;;;;;10023672;28;20533;-68
2023/03/02 23:43:47;;;;;;;40.47;27.45;;;;;;;;;;10027015;28;20045;-68
2023/03/02 23:48:42;;;;;;;31.30;23.23;;;;;;;;;;10031858;28;20045;-68
2023/03/02 23:53:35;;;;;;;37.80;26.63;;;;;;;;;;10031774;28;20088;-68
2023/03/02 23:58:29;;;;;;;36.30;24.27;;;;;;;;;;10031833;28;20128;-68
